Time;durP1;ratioP1;P1;durP2;ratioP2;P2;SDS_P1;SDS_P2;PMS_P1;PMS_P2;Temp;Humidity;BMP_temperature;BMP_pressure;BME280_temperature;BME280_humidity;BME280_pressure;Samples;Min_cycle;Max_cycle;Signal;HPM_P1;HPM_P2
2022/08/07 00:00:20;;;;;;;9.43;6.72;;;23.60;88.30;;;;;;4161986;28;20022;-66
2022/08/07 00:02:21;;;;;;;10.88;6.75;;;23.60;88.40;;;;;;4161671;28;20511;-65
2022/08/07 00:04:23;;;;;;;11.32;7.50;;;23.50;88.50;;;;;;4144596;28;20482;-64
2022/08/07 00:06:24;;;;;;;12.05;8.40;;;23.50;88.90;;;;;;4161886;28;20018;-64
2022/08/07 00:08:26;;;;;;;9.80;7.35;;;23.40;89.10;;;;;;4161418;28;20092;-65
2022/08/07 00:10:29;;;;;;;10.57;7.43;;;23.40;89.30;;;;;;4160416;28;20104;-65
2022/08/07 00:12:30;;;;;;;18.63;8.68;;;23.40;89.60;;;;;;4161965;28;20041;-65
2022/08/07 00:14:31;;;;;;;15.02;8.63;;;23.40;90.00;;;;;;4161502;28;20045;-66
2022/08/07 00:16:32;;;;;;;10.10;7.65;;;23.30;90.10;;;;;;4162576;28;20072;-67
2022/08/07 00:18:34;;;;;;;17.27;7.53;;;23.30;90.20;;;;;;4161722;28;20037;-64
2022/08/07 00:20:37;;;;;;;11.27;7.43;;;23.30;90.40;;;;;;4162796;28;20029;-63
2022/08/07 00:22:38;;;;;;;9.90;7.50;;;23.20;90.40;;;;;;4161163;28;20025;-64
2022/08/07 00:24:39;;;;;;;10.30;7.20;;;23.20;90.50;;;;;;4162462;28;20083;-64
2022/08/07 00:26:40;;;;;;;10.13;7.65;;;23.20;90.60;;;;;;4161214;28;20477;-64
2022/08/07 00:28:43;;;;;;;16.73;7.63;;;23.20;90.70;;;;;;4161897;28;20041;-65
2022/08/07 00:30:44;;;;;;;10.48;7.95;;;23.20;90.80;;;;;;4161347;28;20068;-65
2022/08/07 00:32:49;;;;;;;13.23;8.30;;;23.20;90.90;;;;;;4162007;28;20111;-64
2022/08/07 00:34:50;;;;;;;12.43;9.20;;;23.20;91.00;;;;;;4160860;28;20087;-68
2022/08/07 00:36:52;;;;;;;9.52;7.50;;;23.10;91.10;;;;;;4161681;28;20037;-67
2022/08/07 00:38:53;;;;;;;11.57;7.80;;;23.10;91.30;;;;;;4161659;28;20664;-64
2022/08/07 00:40:54;;;;;;;16.38;7.93;;;23.10;91.60;;;;;;4160845;28;20131;-66
2022/08/07 00:42:55;;;;;;;11.52;7.95;;;23.00;91.80;;;;;;4144348;28;20034;-68
2022/08/07 00:44:56;;;;;;;12.23;7.18;;;23.00;92.00;;;;;;4161149;28;20083;-64
2022/08/07 00:46:57;;;;;;;12.50;6.95;;;23.00;92.20;;;;;;4162197;28;20064;-64
2022/08/07 00:49:01;;;;;;;7.40;5.93;;;22.90;92.40;;;;;;4160802;28;20091;-63
2022/08/07 00:51:03;;;;;;;10.95;7.13;;;22.90;92.40;;;;;;4162085;28;20086;-65
2022/08/07 00:53:04;;;;;;;9.20;7.25;;;22.90;92.50;;;;;;4160301;28;20045;-64
2022/08/07 00:55:05;;;;;;;17.73;8.45;;;23.00;92.60;;;;;;4161854;28;20067;-65
2022/08/07 00:57:08;;;;;;;9.75;6.20;;;23.00;92.70;;;;;;4160820;28;20099;-65
2022/08/07 00:59:10;;;;;;;8.57;6.20;;;23.00;92.80;;;;;;4144587;28;20045;-65
2022/08/07 01:01:11;;;;;;;11.23;7.00;;;22.90;93.00;;;;;;4160933;28;20029;-64
2022/08/07 01:03:12;;;;;;;12.82;7.10;;;22.80;93.20;;;;;;4144119;28;20069;-63
2022/08/07 01:05:16;;;;;;;10.60;7.10;;;22.70;93.70;;;;;;4160679;28;20083;-63
2022/08/07 01:07:20;;;;;;;11.45;7.70;;;22.60;94.30;;;;;;4160772;28;20037;-69
2022/08/07 01:09:22;;;;;;;11.30;7.50;;;22.60;94.60;;;;;;4160427;28;20053;-64
2022/08/07 01:11:24;;;;;;;9.55;7.10;;;22.50;95.10;;;;;;4161386;28;20022;-64
2022/08/07 01:13:26;;;;;;;9.05;6.82;;;22.50;95.30;;;;;;4160473;28;20084;-63
2022/08/07 01:15:27;;;;;;;9.60;7.80;;;22.50;95.70;;;;;;4160794;28;20022;-67
2022/08/07 01:17:29;;;;;;;11.50;7.78;;;22.50;96.00;;;;;;4161878;28;20083;-63
2022/08/07 01:19:32;;;;;;;9.63;7.50;;;22.50;96.50;;;;;;4160256;28;20103;-66
2022/08/07 01:21:34;;;;;;;8.80;7.03;;;22.40;96.70;;;;;;4161018;28;20045;-67
2022/08/07 01:23:36;;;;;;;8.55;6.75;;;22.40;97.00;;;;;;4160006;28;20429;-63
2022/08/07 01:25:39;;;;;;;11.25;7.10;;;22.30;97.40;;;;;;4161252;28;20041;-64
2022/08/07 01:27:40;;;;;;;9.52;6.82;;;22.30;97.80;;;;;;4160664;28;20084;-69
2022/08/07 01:29:42;;;;;;;9.35;7.18;;;22.20;98.10;;;;;;4161489;28;20033;-64
2022/08/07 01:31:43;;;;;;;8.65;7.45;;;22.20;98.60;;;;;;4160222;28;20049;-63
2022/08/07 01:33:46;;;;;;;8.75;6.45;;;22.20;98.60;;;;;;4144160;28;20161;-67
2022/08/07 01:35:47;;;;;;;8.90;6.43;;;22.10;98.80;;;;;;4159800;28;20049;-63
2022/08/07 01:37:49;;;;;;;7.03;6.32;;;22.10;99.20;;;;;;4160991;28;20037;-64
2022/08/07 01:39:51;;;;;;;9.70;7.18;;;22.10;99.40;;;;;;4160272;28;20053;-66
2022/08/07 01:41:53;;;;;;;9.93;6.80;;;22.10;99.70;;;;;;4160635;28;20046;-63
2022/08/07 01:43:54;;;;;;;9.52;6.68;;;22.00;99.90;;;;;;4160876;28;20029;-63
2022/08/07 01:45:57;;;;;;;9.05;7.25;;;22.00;99.90;;;;;;4160367;28;20033;-63
2022/08/07 01:47:58;;;;;;;15.57;6.85;;;22.00;99.90;;;;;;4161226;28;20033;-63
2022/08/07 01:50:00;;;;;;;8.80;6.70;;;22.00;99.90;;;;;;4161048;28;20034;-64
2022/08/07 01:52:02;;;;;;;12.75;7.72;;;21.90;99.90;;;;;;4161538;28;20060;-63
2022/08/07 01:54:07;;;;;;;10.00;7.05;;;21.90;99.90;;;;;;4160047;28;20091;-62
2022/08/07 01:56:14;;;;;;;11.32;7.40;;;21.90;99.90;;;;;;4161178;28;20044;-64
2022/08/07 01:58:20;;;;;;;8.23;6.18;;;21.90;99.90;;;;;;4160349;28;20034;-64
2022/08/07 02:00:23;;;;;;;10.07;6.40;;;21.90;99.90;;;;;;4161088;28;20042;-69
2022/08/07 02:02:32;;;;;;;7.03;6.32;;;21.90;99.90;;;;;;4159850;28;20547;-63
2022/08/07 02:04:50;;;;;;;10.10;6.95;;;21.80;99.90;;;;;;4160902;28;20049;-67
2022/08/07 02:06:53;;;;;;;10.07;7.22;;;21.80;99.90;;;;;;4160409;28;20029;-63
2022/08/07 02:08:55;;;;;;;7.95;7.22;;;21.80;99.90;;;;;;4160876;28;20049;-70
2022/08/07 02:10:59;;;;;;;9.40;7.38;;;21.90;99.90;;;;;;4159597;28;20100;-64
2022/08/07 02:13:02;;;;;;;10.00;7.65;;;21.80;99.90;;;;;;4160771;28;20041;-70
2022/08/07 02:15:04;;;;;;;8.65;7.43;;;21.80;99.90;;;;;;4160256;28;20111;-63
2022/08/07 02:17:06;;;;;;;9.35;7.75;;;21.80;99.90;;;;;;4161544;28;20083;-70
2022/08/07 02:19:11;;;;;;;10.88;7.45;;;21.80;99.90;;;;;;4160137;28;20029;-63
2022/08/07 02:21:15;;;;;;;9.82;7.10;;;21.80;99.90;;;;;;4161828;28;20033;-62
2022/08/07 02:23:18;;;;;;;9.02;7.57;;;21.80;99.90;;;;;;4159950;28;20018;-65
2022/08/07 02:25:20;;;;;;;9.77;7.22;;;21.80;99.90;;;;;;4161408;28;20041;-63
2022/08/07 02:27:24;;;;;;;7.88;6.82;;;21.70;99.90;;;;;;4163325;28;20520;-68
2022/08/07 02:29:26;;;;;;;11.15;7.40;;;21.70;99.90;;;;;;4163782;28;20030;-63
2022/08/07 02:31:28;;;;;;;11.38;7.68;;;21.70;99.90;;;;;;4162709;28;20053;-63
2022/08/07 02:33:31;;;;;;;7.68;6.88;;;21.70;99.90;;;;;;4163789;28;20061;-67
2022/08/07 02:35:34;;;;;;;8.57;7.55;;;21.70;99.90;;;;;;4163183;28;20119;-64
2022/08/07 02:37:40;;;;;;;8.35;7.28;;;21.70;99.90;;;;;;4162815;28;20091;-67
2022/08/07 02:39:44;;;;;;;8.85;7.57;;;21.70;99.90;;;;;;4163290;28;20444;-72
2022/08/07 02:41:47;;;;;;;9.20;6.93;;;21.60;99.90;;;;;;4163008;28;20029;-70
2022/08/07 02:43:49;;;;;;;9.00;7.00;;;21.50;99.90;;;;;;4163230;28;20095;-70
2022/08/07 02:45:51;;;;;;;8.93;7.10;;;21.50;99.90;;;;;;4161844;28;20041;-64
2022/08/07 02:47:53;;;;;;;13.65;8.10;;;21.50;99.90;;;;;;4163344;28;20053;-64
2022/08/07 02:49:54;;;;;;;9.70;7.95;;;21.40;99.90;;;;;;4163142;28;20539;-71
2022/08/07 02:51:58;;;;;;;8.07;7.28;;;21.40;99.90;;;;;;4164056;28;20083;-63
2022/08/07 02:54:01;;;;;;;7.85;7.05;;;21.40;99.90;;;;;;4161474;28;20107;-65
2022/08/07 02:56:05;;;;;;;9.88;7.95;;;21.40;99.90;;;;;;4163521;28;20033;-68
2022/08/07 02:58:11;;;;;;;10.93;7.68;;;21.30;99.90;;;;;;4162234;28;20037;-64
2022/08/07 03:00:12;;;;;;;12.70;7.80;;;21.30;99.90;;;;;;4163610;28;20075;-64
2022/08/07 03:02:14;;;;;;;9.38;7.63;;;21.30;99.90;;;;;;4162509;28;20029;-69
2022/08/07 03:04:17;;;;;;;9.15;8.15;;;21.30;99.90;;;;;;4163297;28;20037;-66
2022/08/07 03:06:20;;;;;;;12.38;8.23;;;21.30;99.90;;;;;;4162573;28;20429;-63
2022/08/07 03:08:21;;;;;;;9.77;7.57;;;21.30;99.90;;;;;;4162823;28;20091;-63
2022/08/07 03:10:23;;;;;;;10.90;8.23;;;21.30;99.90;;;;;;4162235;28;20026;-71
2022/08/07 03:12:25;;;;;;;10.48;7.60;;;21.30;99.90;;;;;;4162812;28;20029;-64
2022/08/07 03:14:27;;;;;;;9.90;8.48;;;21.30;99.90;;;;;;4163031;28;20091;-64
2022/08/07 03:16:32;;;;;;;13.23;8.48;;;21.30;99.90;;;;;;4161918;28;20041;-65
2022/08/07 03:18:33;;;;;;;8.65;7.05;;;21.30;99.90;;;;;;4162684;28;20041;-69
2022/08/07 03:20:35;;;;;;;10.10;7.78;;;21.30;99.90;;;;;;4162371;28;20083;-64
2022/08/07 03:22:40;;;;;;;14.48;8.23;;;21.30;99.90;;;;;;4162868;28;20080;-64
2022/08/07 03:24:41;;;;;;;10.73;7.75;;;21.30;99.90;;;;;;4161390;28;20087;-69
2022/08/07 03:26:44;;;;;;;8.27;7.40;;;21.30;99.90;;;;;;4163001;28;20068;-65
2022/08/07 03:28:47;;;;;;;11.05;8.32;;;21.30;99.90;;;;;;4162162;28;20033;-64
2022/08/07 03:31:17;;;;;;;12.60;8.05;;;21.40;99.90;;;;;;4163289;28;20738;-64
2022/08/07 03:33:13;;;;;;;13.18;8.00;;;21.40;99.90;;;;;;4161917;28;20026;-64
2022/08/07 03:35:18;;;;;;;12.18;8.05;;;21.50;99.90;;;;;;4163037;28;20037;-65
2022/08/07 03:37:21;;;;;;;10.63;7.72;;;21.40;99.90;;;;;;4160756;28;20428;-64
2022/08/07 03:39:24;;;;;;;9.88;7.72;;;21.40;99.90;;;;;;4162088;28;20046;-63
2022/08/07 03:41:25;;;;;;;9.43;7.65;;;21.40;99.90;;;;;;4162063;28;20063;-64
2022/08/07 03:43:27;;;;;;;8.95;7.35;;;21.50;99.90;;;;;;4163144;28;20087;-65
2022/08/07 03:45:28;;;;;;;10.85;7.78;;;21.50;99.90;;;;;;4161980;28;20083;-67
2022/08/07 03:47:30;;;;;;;8.45;7.18;;;21.50;99.90;;;;;;4162886;28;20079;-65
2022/08/07 03:49:33;;;;;;;9.27;7.20;;;21.40;99.90;;;;;;4161434;28;20041;-67
2022/08/07 03:51:34;;;;;;;10.57;7.65;;;21.50;99.90;;;;;;4163035;28;20093;-72
2022/08/07 03:53:38;;;;;;;9.75;8.23;;;21.60;99.90;;;;;;4161433;28;20428;-68
2022/08/07 03:55:41;;;;;;;9.45;7.88;;;21.90;99.90;;;;;;4161993;28;20095;-64
2022/08/07 03:57:44;;;;;;;10.90;8.35;;;22.20;99.90;;;;;;4162265;28;20029;-64
2022/08/07 03:59:45;;;;;;;8.80;7.88;;;22.50;99.90;;;;;;4161798;28;20432;-70
2022/08/07 04:01:48;;;;;;;10.20;7.47;;;22.80;99.90;;;;;;4161896;28;20038;-64
2022/08/07 04:03:49;;;;;;;8.85;7.88;;;23.00;99.90;;;;;;4161066;28;20301;-63
2022/08/07 04:05:50;;;;;;;12.30;7.78;;;23.20;99.90;;;;;;4162686;28;20029;-67
2022/08/07 04:07:52;;;;;;;11.35;8.07;;;23.30;99.90;;;;;;4160748;28;20037;-72
2022/08/07 04:09:54;;;;;;;9.98;7.32;;;23.30;99.90;;;;;;4162678;28;20083;-71
2022/08/07 04:11:56;;;;;;;12.13;7.95;;;23.50;99.90;;;;;;4161206;28;20563;-65
2022/08/07 04:13:58;;;;;;;8.35;7.20;;;24.00;99.90;;;;;;4162681;28;20037;-64
2022/08/07 04:15:59;;;;;;;9.63;7.75;;;24.30;99.90;;;;;;4161006;28;20399;-63
2022/08/07 04:18:01;;;;;;;13.15;7.65;;;24.60;99.90;;;;;;4162286;28;20033;-65
2022/08/07 04:20:03;;;;;;;7.75;6.95;;;25.10;99.90;;;;;;4161459;28;20037;-64
2022/08/07 04:22:05;;;;;;;7.45;6.57;;;25.50;99.90;;;;;;4162820;28;20025;-63
2022/08/07 04:24:09;;;;;;;8.18;6.57;;;26.00;99.90;;;;;;4161058;28;20088;-66
2022/08/07 04:26:11;;;;;;;7.25;6.55;;;26.40;99.80;;;;;;4161391;28;20095;-65
2022/08/07 04:28:14;;;;;;;8.80;6.45;;;26.80;99.10;;;;;;4161593;28;20029;-65
2022/08/07 04:30:15;;;;;;;7.47;6.65;;;27.20;98.30;;;;;;4161383;28;20087;-64
2022/08/07 04:32:16;;;;;;;9.57;6.35;;;27.50;97.70;;;;;;4161095;28;20034;-70
2022/08/07 04:34:20;;;;;;;8.82;5.82;;;27.70;97.10;;;;;;4160731;28;20041;-71
2022/08/07 04:36:21;;;;;;;6.60;6.00;;;28.00;96.60;;;;;;4161531;28;20034;-65
2022/08/07 04:38:25;;;;;;;6.40;5.80;;;28.30;96.00;;;;;;4160903;28;20455;-63
2022/08/07 04:40:26;;;;;;;8.07;5.72;;;28.60;95.60;;;;;;4161694;28;20099;-63
2022/08/07 04:42:30;;;;;;;18.83;6.47;;;28.90;94.80;;;;;;4161047;28;20091;-63
2022/08/07 04:44:32;;;;;;;6.57;5.95;;;29.10;94.30;;;;;;4162259;28;20026;-65
2022/08/07 04:46:54;;;;;;;7.18;6.13;;;29.40;93.90;;;;;;4160995;28;20033;-64
2022/08/07 04:49:01;;;;;;;7.18;5.93;;;29.50;92.80;;;;;;4161854;28;20041;-65
2022/08/07 04:51:08;;;;;;;7.40;5.55;;;29.40;93.00;;;;;;4161245;28;20083;-69
2022/08/07 04:53:57;;;;;;;9.20;6.40;;;29.40;93.20;;;;;;4161481;28;20568;-64
2022/08/07 04:56:13;;;;;;;6.97;5.53;;;29.20;92.10;;;;;;4151458;28;20056;-64
2022/08/07 04:58:38;;;;;;;7.53;6.32;;;29.20;92.70;;;;;;4161401;28;20022;-65
2022/08/07 05:01:02;;;;;;;10.60;5.97;;;29.30;92.80;;;;;;4161301;28;20037;-64
2022/08/07 05:03:37;;;;;;;9.85;6.15;;;30.00;91.70;;;;;;4160820;28;20026;-67
2022/08/07 05:05:49;;;;;;;8.02;5.97;;;30.40;91.50;;;;;;4138827;28;20107;-64
2022/08/07 05:08:16;;;;;;;8.75;5.72;;;30.50;90.40;;;;;;4159969;28;20045;-64
2022/08/07 05:10:25;;;;;;;10.05;5.57;;;30.50;90.20;;;;;;4143765;28;20046;-64
2022/08/07 05:12:33;;;;;;;8.68;5.88;;;30.60;90.30;;;;;;4160465;28;20064;-65
2022/08/07 05:14:41;;;;;;;7.15;5.93;;;30.50;90.10;;;;;;4161355;28;20042;-64
2022/08/07 05:16:46;;;;;;;10.73;6.05;;;30.50;90.00;;;;;;4160293;28;20071;-64
2022/08/07 05:18:54;;;;;;;6.30;5.70;;;30.60;90.00;;;;;;4161764;28;20034;-68
2022/08/07 05:20:59;;;;;;;6.05;5.55;;;30.60;89.60;;;;;;4160470;28;20694;-64
2022/08/07 05:23:06;;;;;;;7.63;5.50;;;30.60;89.30;;;;;;4161552;28;21117;-65
2022/08/07 05:25:09;;;;;;;7.05;5.45;;;30.90;88.40;;;;;;4160016;28;20037;-64
2022/08/07 05:27:15;;;;;;;5.90;5.40;;;31.00;88.10;;;;;;4160888;28;20095;-64
2022/08/07 05:29:18;;;;;;;7.78;5.53;;;31.10;87.60;;;;;;4159793;28;20626;-65
2022/08/07 05:31:22;;;;;;;7.80;4.82;;;31.30;87.10;;;;;;4160859;28;20041;-64
2022/08/07 05:33:26;;;;;;;17.38;6.22;;;31.50;86.40;;;;;;4160477;28;20076;-64
2022/08/07 05:35:28;;;;;;;9.57;5.55;;;32.10;85.70;;;;;;4160986;28;20045;-70
2022/08/07 05:37:30;;;;;;;7.38;5.82;;;32.50;84.80;;;;;;4160598;28;20095;-65
2022/08/07 05:39:31;;;;;;;7.47;5.60;;;32.90;83.70;;;;;;4159936;28;20041;-64
2022/08/07 05:41:32;;;;;;;7.28;5.88;;;32.90;82.80;;;;;;4160865;28;20536;-64
2022/08/07 05:43:34;;;;;;;7.07;5.40;;;33.00;82.40;;;;;;4160689;28;20029;-65
2022/08/07 05:45:35;;;;;;;6.78;5.65;;;33.30;82.20;;;;;;4161281;28;20807;-64
2022/08/07 05:47:37;;;;;;;11.02;5.05;;;33.60;81.30;;;;;;4160370;28;20047;-66
2022/08/07 05:49:38;;;;;;;7.93;5.15;;;33.90;80.80;;;;;;4161387;28;20037;-66
2022/08/07 05:51:44;;;;;;;5.40;4.78;;;34.20;80.00;;;;;;4160620;28;20034;-64
2022/08/07 05:53:46;;;;;;;7.90;5.30;;;34.60;79.00;;;;;;4161445;28;20354;-63
2022/08/07 05:55:49;;;;;;;5.38;4.70;;;34.80;78.50;;;;;;4159669;28;20553;-64
2022/08/07 05:57:51;;;;;;;4.47;4.18;;;34.90;77.80;;;;;;4160867;28;20033;-64
2022/08/07 05:59:54;;;;;;;5.38;4.68;;;35.20;77.30;;;;;;4160874;28;20022;-65
2022/08/07 06:01:57;;;;;;;4.68;4.18;;;34.90;76.70;;;;;;4163994;28;20115;-63
2022/08/07 06:04:00;;;;;;;5.07;4.35;;;34.90;76.60;;;;;;4163297;28;20033;-63
2022/08/07 06:06:01;;;;;;;5.88;3.97;;;34.80;76.20;;;;;;4164546;28;20099;-63
2022/08/07 06:08:03;;;;;;;7.22;5.90;;;34.70;76.10;;;;;;4163235;28;20033;-63
2022/08/07 06:10:07;;;;;;;6.00;5.15;;;34.40;76.00;;;;;;4164193;28;20062;-67
2022/08/07 06:12:09;;;;;;;6.65;4.95;;;34.30;76.50;;;;;;4162569;28;20029;-63
2022/08/07 06:14:10;;;;;;;5.72;4.38;;;34.50;76.10;;;;;;4163814;28;20071;-66
2022/08/07 06:16:13;;;;;;;5.03;4.53;;;34.70;75.70;;;;;;4163104;28;20042;-65
2022/08/07 06:18:16;;;;;;;6.13;4.65;;;34.70;75.90;;;;;;4163473;28;20064;-66
2022/08/07 06:20:17;;;;;;;6.63;4.68;;;34.60;75.00;;;;;;4163057;28;20096;-64
2022/08/07 06:22:19;;;;;;;5.72;4.55;;;34.30;75.20;;;;;;4145703;28;20089;-64
2022/08/07 06:24:21;;;;;;;7.03;4.05;;;34.10;75.40;;;;;;4163260;28;20084;-70
2022/08/07 06:26:22;;;;;;;8.38;4.78;;;34.10;75.50;;;;;;4144751;28;20133;-68
2022/08/07 06:28:24;;;;;;;8.35;4.53;;;33.90;75.40;;;;;;4163736;28;20439;-67
2022/08/07 06:30:25;;;;;;;17.23;5.95;;;33.80;75.80;;;;;;4161944;28;20041;-65
2022/08/07 06:32:26;;;;;;;14.43;5.18;;;33.70;75.60;;;;;;4163493;28;20440;-65
2022/08/07 06:34:28;;;;;;;17.10;6.30;;;33.60;75.90;;;;;;4162388;28;20488;-65
2022/08/07 06:36:29;;;;;;;8.20;5.05;;;33.50;75.80;;;;;;4164125;28;20441;-63
2022/08/07 06:38:30;;;;;;;12.02;4.22;;;33.20;76.20;;;;;;4162389;28;20045;-66
2022/08/07 06:40:39;;;;;;;13.52;5.88;;;33.00;76.50;;;;;;4163596;28;20115;-64
2022/08/07 06:42:42;;;;;;;16.30;6.25;;;33.20;76.60;;;;;;4162112;28;20091;-64
2022/08/07 06:44:46;;;;;;;14.80;5.93;;;33.20;76.20;;;;;;4163797;28;20033;-66
2022/08/07 06:46:47;;;;;;;20.10;5.80;;;33.00;76.30;;;;;;4162011;28;20087;-65
2022/08/07 06:48:48;;;;;;;9.93;5.72;;;32.80;76.60;;;;;;4163159;28;20488;-67
2022/08/07 06:50:51;;;;;;;11.50;5.60;;;32.60;77.00;;;;;;4162473;28;20478;-63
2022/08/07 06:52:55;;;;;;;20.20;6.53;;;32.50;77.20;;;;;;4162774;28;20041;-65
2022/08/07 06:54:58;;;;;;;22.50;6.13;;;32.20;77.50;;;;;;4163093;28;20038;-63
2022/08/07 06:57:00;;;;;;;18.95;6.60;;;31.70;78.30;;;;;;4162136;28;20033;-64
2022/08/07 06:59:01;;;;;;;24.15;6.47;;;31.70;78.70;;;;;;4163459;28;20433;-64
2022/08/07 07:01:07;;;;;;;21.67;6.50;;;31.70;78.60;;;;;;4162366;28;20402;-63
2022/08/07 07:03:10;;;;;;;17.75;5.95;;;31.60;79.00;;;;;;4162752;28;20115;-64
2022/08/07 07:05:12;;;;;;;13.38;5.85;;;32.10;78.70;;;;;;4162431;28;20083;-64
2022/08/07 07:07:14;;;;;;;9.60;5.13;;;32.30;77.90;;;;;;4163055;28;20095;-64
2022/08/07 07:09:26;;;;;;;11.80;4.85;;;32.10;78.10;;;;;;4161771;28;20033;-63
2022/08/07 07:11:27;;;;;;;12.85;4.57;;;31.70;78.10;;;;;;4163120;28;20025;-67
2022/08/07 07:13:43;;;;;;;6.40;4.38;;;31.40;79.70;;;;;;4162160;28;20089;-65
2022/08/07 07:15:52;;;;;;;6.63;5.07;;;31.30;78.70;;;;;;4163132;28;20037;-68
2022/08/07 07:18:04;;;;;;;10.68;4.85;;;31.60;79.00;;;;;;4162028;28;20045;-65
2022/08/07 07:20:15;;;;;;;7.30;5.13;;;32.00;78.70;;;;;;4163212;28;20038;-64
2022/08/07 07:22:17;;;;;;;6.43;4.68;;;31.90;79.10;;;;;;4162128;28;20064;-70
2022/08/07 07:24:19;;;;;;;8.25;5.47;;;31.50;78.60;;;;;;4163422;28;20017;-65
2022/08/07 07:26:21;;;;;;;7.20;5.28;;;31.40;79.00;;;;;;4161994;28;20025;-66
2022/08/07 07:28:28;;;;;;;8.02;5.47;;;31.20;79.20;;;;;;4163195;28;20473;-64
2022/08/07 07:30:35;;;;;;;8.02;4.45;;;31.10;79.60;;;;;;4161990;28;20033;-63
2022/08/07 07:32:39;;;;;;;6.28;4.18;;;31.20;79.40;;;;;;4162682;28;20054;-66
2022/08/07 07:34:48;;;;;;;6.22;4.63;;;31.30;79.50;;;;;;4162010;28;20052;-68
2022/08/07 07:36:50;;;;;;;5.68;4.47;;;31.90;79.10;;;;;;4163079;28;20087;-63
2022/08/07 07:38:52;;;;;;;8.25;4.82;;;31.90;78.10;;;;;;4161069;28;20084;-64
2022/08/07 07:41:00;;;;;;;6.90;5.25;;;31.50;78.20;;;;;;4162392;28;20053;-65
2022/08/07 07:43:04;;;;;;;8.60;4.75;;;31.40;78.20;;;;;;4161067;28;20038;-65
2022/08/07 07:45:06;;;;;;;4.80;4.18;;;31.30;78.60;;;;;;4162172;28;20072;-64
2022/08/07 07:47:09;;;;;;;5.45;4.88;;;31.40;78.50;;;;;;4162058;28;20025;-64
2022/08/07 07:49:13;;;;;;;5.30;4.20;;;31.20;78.10;;;;;;4162333;28;20068;-64
2022/08/07 07:51:17;;;;;;;4.43;4.07;;;31.10;78.30;;;;;;4162373;28;20071;-64
2022/08/07 07:53:21;;;;;;;6.07;4.90;;;30.80;78.10;;;;;;4161325;28;20046;-65
2022/08/07 07:55:24;;;;;;;5.00;4.45;;;30.50;78.70;;;;;;4161489;28;20091;-64
2022/08/07 07:57:26;;;;;;;7.47;4.80;;;30.50;78.80;;;;;;4161719;28;20136;-63
2022/08/07 07:59:28;;;;;;;6.32;4.35;;;30.70;78.40;;;;;;4162511;28;20444;-65
2022/08/07 08:01:30;;;;;;;7.55;4.43;;;31.10;78.00;;;;;;4161035;28;20676;-64
2022/08/07 08:03:34;;;;;;;5.18;4.43;;;31.30;77.60;;;;;;4161676;28;20049;-67
2022/08/07 08:05:40;;;;;;;5.65;3.67;;;31.30;77.60;;;;;;4161571;28;20084;-68
2022/08/07 08:07:42;;;;;;;4.80;4.40;;;31.20;77.60;;;;;;4162390;28;20068;-66
2022/08/07 08:09:49;;;;;;;7.50;4.05;;;31.20;77.60;;;;;;4161292;28;20060;-64
2022/08/07 08:11:54;;;;;;;5.13;4.25;;;31.20;77.60;;;;;;4161479;28;20436;-64
2022/08/07 08:13:55;;;;;;;7.40;4.28;;;31.20;77.30;;;;;;4159928;28;20041;-70
2022/08/07 08:16:00;;;;;;;8.80;4.05;;;31.00;77.60;;;;;;4162313;28;20037;-64
2022/08/07 08:18:03;;;;;;;4.50;4.10;;;30.90;77.90;;;;;;4161160;28;20033;-63
2022/08/07 08:20:07;;;;;;;5.38;4.40;;;30.40;78.20;;;;;;4161900;28;20099;-65
2022/08/07 08:27:10;;;;;;;6.18;4.78;;;30.30;77.80;;;;;;4161081;28;20109;-65
2022/08/07 08:29:15;;;;;;;5.35;4.40;;;30.30;77.70;;;;;;4162161;28;20029;-68
2022/08/07 08:31:24;;;;;;;4.40;4.00;;;30.30;77.50;;;;;;4160280;28;20037;-68
2022/08/07 08:33:29;;;;;;;6.60;4.60;;;30.20;77.70;;;;;;4161945;28;20021;-66
2022/08/07 08:35:33;;;;;;;7.78;4.95;;;30.30;77.60;;;;;;4160777;28;20042;-63
2022/08/07 08:37:37;;;;;;;4.60;4.20;;;30.70;77.10;;;;;;4161902;28;20424;-63
2022/08/07 08:39:41;;;;;;;4.60;4.20;;;30.60;76.80;;;;;;4161056;28;20025;-64
2022/08/07 08:41:57;;;;;;;3.90;3.60;;;30.70;76.70;;;;;;4162256;28;20095;-65
2022/08/07 08:44:07;;;;;;;4.53;4.05;;;30.90;76.70;;;;;;4160908;28;20033;-70
2022/08/07 08:46:23;;;;;;;7.07;4.20;;;31.10;76.10;;;;;;4160897;28;20814;-64
2022/08/07 08:48:47;;;;;;;5.43;4.00;;;31.00;76.10;;;;;;4160624;28;20478;-64
2022/08/07 08:51:00;;;;;;;4.25;3.95;;;30.90;75.90;;;;;;4161136;28;20041;-64
2022/08/07 08:53:37;;;;;;;4.95;4.00;;;30.80;75.40;;;;;;4160383;28;20524;-64
2022/08/07 08:55:49;;;;;;;6.72;3.67;;;30.70;75.70;;;;;;4161519;28;20355;-64
2022/08/07 08:58:13;;;;;;;5.70;3.90;;;31.00;75.80;;;;;;4160005;28;20037;-64
2022/08/07 09:00:15;;;;;;;5.40;3.90;;;31.10;73.80;;;;;;4161234;28;20075;-63
2022/08/07 09:02:38;;;;;;;4.72;3.58;;;30.90;75.10;;;;;;4159798;28;20037;-63
2022/08/07 09:05:15;;;;;;;4.13;3.72;;;31.20;74.50;;;;;;4160546;28;20045;-65
2022/08/07 09:07:53;;;;;;;4.88;3.55;;;31.00;73.80;;;;;;4160318;28;20041;-63
2022/08/07 09:10:03;;;;;;;4.50;4.07;;;31.00;74.00;;;;;;4160079;28;20444;-65
2022/08/07 09:12:21;;;;;;;6.60;3.72;;;31.30;74.30;;;;;;4161081;28;20486;-64
2022/08/07 09:14:49;;;;;;;7.30;4.25;;;31.50;73.40;;;;;;4142540;28;20042;-66
2022/08/07 09:17:11;;;;;;;4.10;3.70;;;31.60;73.40;;;;;;4161280;28;20045;-64
2022/08/07 09:19:44;;;;;;;3.95;3.55;;;31.60;73.70;;;;;;4159952;28;20037;-64
2022/08/07 09:21:53;;;;;;;4.30;3.50;;;31.60;73.60;;;;;;4160123;28;20050;-63
2022/08/07 09:24:12;;;;;;;4.03;3.72;;;31.60;73.50;;;;;;4160496;28;20034;-64
2022/08/07 09:26:23;;;;;;;5.13;3.90;;;31.80;73.50;;;;;;4160612;28;20092;-63
2022/08/07 09:28:34;;;;;;;3.80;3.10;;;31.80;72.70;;;;;;4160477;28;20026;-64
2022/08/07 09:31:13;;;;;;;4.00;3.55;;;31.60;72.20;;;;;;4160839;28;20084;-64
2022/08/07 09:33:20;;;;;;;3.45;3.10;;;31.10;72.40;;;;;;4126770;28;20104;-62
2022/08/07 09:35:31;;;;;;;3.85;3.55;;;30.80;73.20;;;;;;4148237;28;20375;-64
2022/08/07 09:37:48;;;;;;;4.45;3.45;;;30.80;73.30;;;;;;4164357;28;20124;-64
2022/08/07 09:40:02;;;;;;;4.35;3.60;;;31.00;73.10;;;;;;4145673;28;20133;-63
2022/08/07 09:42:10;;;;;;;3.45;3.15;;;31.10;72.80;;;;;;4163896;28;20482;-65
2022/08/07 09:44:53;;;;;;;3.97;3.28;;;31.20;72.90;;;;;;4162629;28;20053;-64
2022/08/07 09:47:12;;;;;;;3.88;3.38;;;31.70;73.30;;;;;;4159236;28;20053;-64
2022/08/07 09:49:38;;;;;;;6.72;3.50;;;32.20;72.00;;;;;;4162921;28;20041;-73
2022/08/07 09:52:03;;;;;;;5.15;3.72;;;32.50;71.20;;;;;;4164392;28;20473;-65
2022/08/07 09:54:08;;;;;;;5.07;3.53;;;32.20;71.20;;;;;;4162843;28;20498;-66
2022/08/07 09:56:50;;;;;;;4.68;4.07;;;31.80;71.40;;;;;;4164293;28;20087;-64
2022/08/07 09:59:23;;;;;;;3.53;3.22;;;31.60;70.60;;;;;;4162581;28;20045;-65
2022/08/07 10:01:39;;;;;;;4.30;3.92;;;31.70;70.80;;;;;;4162896;28;20187;-65
2022/08/07 10:03:58;;;;;;;3.85;3.55;;;32.20;71.10;;;;;;4164397;28;20037;-70
2022/08/07 10:06:23;;;;;;;3.70;3.25;;;32.20;71.20;;;;;;4162194;28;20048;-63
2022/08/07 10:08:43;;;;;;;5.60;3.33;;;32.00;70.90;;;;;;4162953;28;20037;-71
2022/08/07 10:10:59;;;;;;;3.97;3.67;;;32.00;71.00;;;;;;4162618;28;20037;-66
2022/08/07 10:13:35;;;;;;;3.65;3.10;;;31.40;71.00;;;;;;4163241;28;20038;-63
2022/08/07 10:16:17;;;;;;;3.50;3.20;;;31.30;70.60;;;;;;4162957;28;20079;-66
2022/08/07 10:18:30;;;;;;;4.63;3.58;;;31.30;70.50;;;;;;4128756;28;20490;-63
2022/08/07 10:20:54;;;;;;;3.60;3.30;;;31.40;71.00;;;;;;4150663;28;20037;-64
2022/08/07 10:23:07;;;;;;;4.15;3.75;;;31.30;71.00;;;;;;4162295;28;20076;-70
2022/08/07 10:25:17;;;;;;;4.00;3.70;;;31.20;71.60;;;;;;4163471;28;20033;-64
2022/08/07 10:27:25;;;;;;;4.28;3.88;;;30.90;72.00;;;;;;4162860;28;20013;-63
2022/08/07 10:29:47;;;;;;;3.63;3.33;;;30.80;72.40;;;;;;4163808;28;20091;-64
2022/08/07 10:32:07;;;;;;;4.00;3.70;;;30.50;72.50;;;;;;4162819;28;20465;-64
2022/08/07 10:34:46;;;;;;;5.97;4.40;;;30.40;72.80;;;;;;4163993;28;20088;-64
2022/08/07 10:37:04;;;;;;;6.25;3.75;;;30.30;74.60;;;;;;4162173;28;20049;-67
2022/08/07 10:39:20;;;;;;;5.68;4.03;;;30.20;74.70;;;;;;4162880;28;20041;-65
2022/08/07 10:41:35;;;;;;;4.60;4.20;;;30.20;75.20;;;;;;4162816;28;20116;-63
2022/08/07 10:44:01;;;;;;;4.95;3.60;;;30.20;75.20;;;;;;4163805;28;20072;-64
2022/08/07 10:46:14;;;;;;;6.75;3.67;;;30.10;73.80;;;;;;4161434;28;20053;-64
2022/08/07 10:48:30;;;;;;;6.05;4.00;;;30.00;75.40;;;;;;4163342;28;20056;-64
2022/08/07 10:50:42;;;;;;;4.13;3.83;;;30.00;75.50;;;;;;4163068;28;20400;-66
2022/08/07 10:53:10;;;;;;;7.90;3.80;;;30.10;75.00;;;;;;4162786;28;20022;-66
2022/08/07 10:55:17;;;;;;;4.68;4.10;;;30.30;74.50;;;;;;4162689;28;20041;-64
2022/08/07 10:57:28;;;;;;;4.05;3.65;;;30.20;74.30;;;;;;4162636;28;20371;-63
2022/08/07 10:59:38;;;;;;;4.25;3.80;;;30.30;74.20;;;;;;4162813;28;20037;-62
2022/08/07 11:02:09;;;;;;;6.95;4.20;;;30.40;74.00;;;;;;4162544;28;20540;-65